createdAt,value
2019-01-16T00:01:18.409Z,99957.00
2019-01-16T00:03:57.255Z,99947.00
2019-01-16T00:06:45.820Z,99952.00
2019-01-16T00:09:54.282Z,99954.00
2019-01-16T00:12:53.830Z,99946.00
2019-01-16T00:15:47.012Z,99941.00
2019-01-16T00:18:42.405Z,99938.00
2019-01-16T00:21:31.298Z,99939.00
2019-01-16T00:24:16.136Z,99943.00
2019-01-16T00:27:04.927Z,99937.00
2019-01-16T00:29:54.982Z,99942.00
2019-01-16T00:32:43.767Z,99949.00
2019-01-16T00:35:38.984Z,99937.00
2019-01-16T00:38:34.945Z,99935.00
2019-01-16T00:41:23.930Z,99930.00
2019-01-16T00:44:23.036Z,99925.00
2019-01-16T00:47:13.164Z,99937.00
2019-01-16T00:50:06.022Z,99917.00
2019-01-16T00:52:57.440Z,99926.00
2019-01-16T00:56:06.040Z,99934.00
2019-01-16T00:58:58.917Z,99929.00
2019-01-16T01:01:47.796Z,99939.00
2019-01-16T01:04:33.514Z,99924.00
2019-01-16T01:07:16.466Z,99938.00
2019-01-16T01:10:09.595Z,99935.00
2019-01-16T01:12:58.623Z,99944.00
2019-01-16T01:15:50.634Z,99935.00
2019-01-16T01:18:46.555Z,99928.00
2019-01-16T01:21:35.522Z,99930.00
2019-01-16T01:24:24.462Z,99930.00
2019-01-16T01:27:23.214Z,99934.00
2019-01-16T01:30:02.024Z,99926.00
2019-01-16T01:32:51.302Z,99926.00
2019-01-16T01:35:40.056Z,99938.00
2019-01-16T01:38:29.725Z,99939.00
2019-01-16T01:41:19.807Z,99929.00
2019-01-16T01:43:57.060Z,99941.00
2019-01-16T01:46:43.552Z,99934.00
2019-01-16T01:49:42.703Z,99930.00
2019-01-16T01:52:31.338Z,99936.00
2019-01-16T01:55:39.473Z,99924.00
2019-01-16T01:58:24.214Z,99924.00
2019-01-16T02:01:17.102Z,99926.00
2019-01-16T02:04:28.983Z,99939.00
2019-01-16T02:07:19.073Z,99925.00
2019-01-16T02:10:05.545Z,99931.00
2019-01-16T02:13:02.826Z,99922.00
2019-01-16T02:15:50.959Z,99923.00
2019-01-16T02:18:47.178Z,99929.00
2019-01-16T02:21:22.206Z,99928.00
2019-01-16T02:24:05.020Z,99932.00
2019-01-16T02:26:54.957Z,99927.00
2019-01-16T02:29:47.700Z,99924.00
2019-01-16T02:32:50.122Z,99915.00
2019-01-16T02:35:42.584Z,99919.00
2019-01-16T02:38:50.756Z,99919.00
2019-01-16T02:41:58.694Z,99913.00
2019-01-16T02:44:49.624Z,99910.00
2019-01-16T02:47:48.498Z,99908.00
2019-01-16T02:50:32.334Z,99922.00
2019-01-16T02:53:23.013Z,99898.00
2019-01-16T02:56:09.042Z,99910.00
2019-01-16T02:58:53.047Z,99901.00
2019-01-16T03:01:48.963Z,99896.00
2019-01-16T03:04:34.866Z,99884.00
2019-01-16T03:07:19.215Z,99883.00
2019-01-16T03:10:06.437Z,99880.00
2019-01-16T03:12:53.178Z,99879.00
2019-01-16T03:15:42.185Z,99877.00
2019-01-16T03:18:30.749Z,99874.00
2019-01-16T03:21:20.777Z,99875.00
2019-01-16T03:24:17.621Z,99868.00
2019-01-16T03:27:16.231Z,99864.00
2019-01-16T03:30:00.687Z,99859.00
2019-01-16T03:32:55.135Z,99857.00
2019-01-16T03:35:43.973Z,99851.00
2019-01-16T03:38:36.915Z,99850.00
2019-01-16T03:41:25.591Z,99845.00
2019-01-16T03:44:09.695Z,99843.00
2019-01-16T03:46:59.721Z,99849.00
2019-01-16T03:49:41.839Z,99848.00
2019-01-16T03:52:26.010Z,99842.00
2019-01-16T03:55:14.851Z,99837.00
2019-01-16T03:58:03.467Z,99832.00
2019-01-16T04:00:53.429Z,99839.00
2019-01-16T04:03:41.477Z,99831.00
2019-01-16T04:06:27.602Z,99826.00
2019-01-16T04:09:16.434Z,99833.00
2019-01-16T04:12:18.414Z,99825.00
2019-01-16T04:15:14.279Z,99824.00
2019-01-16T04:17:58.694Z,99826.00
2019-01-16T04:20:51.645Z,99824.00
2019-01-16T04:23:40.085Z,99811.00
2019-01-16T04:26:25.779Z,99810.00
2019-01-16T04:29:18.420Z,99804.00
2019-01-16T04:32:17.222Z,99798.00
2019-01-16T04:35:16.233Z,99799.00
2019-01-16T04:38:00.033Z,99794.00
2019-01-16T04:40:53.192Z,99791.00
2019-01-16T04:43:48.987Z,99793.00
2019-01-16T04:46:42.745Z,99791.00
2019-01-16T04:49:21.023Z,99800.00
2019-01-16T04:52:14.796Z,99787.00
2019-01-16T04:55:03.431Z,99791.00
2019-01-16T04:57:54.425Z,99788.00
2019-01-16T05:00:41.848Z,99789.00
2019-01-16T05:03:46.247Z,99790.00
2019-01-16T05:06:36.839Z,99786.00
2019-01-16T05:09:28.139Z,99783.00
2019-01-16T05:12:20.147Z,99781.00
2019-01-16T05:15:12.929Z,99784.00
2019-01-16T05:18:08.059Z,99779.00
2019-01-16T05:20:57.170Z,99775.00
2019-01-16T05:23:53.262Z,99778.00
2019-01-16T05:27:02.070Z,99780.00
2019-01-16T05:30:00.236Z,99775.00
2019-01-16T05:32:53.931Z,99767.00
2019-01-16T05:35:43.882Z,99764.00
2019-01-16T05:38:31.170Z,99763.00
2019-01-16T05:41:24.271Z,99762.00
2019-01-16T05:44:26.345Z,99761.00
2019-01-16T05:47:08.443Z,99761.00
2019-01-16T05:49:58.492Z,99755.00
2019-01-16T05:52:49.609Z,99746.00
2019-01-16T05:55:36.504Z,99756.00
2019-01-16T05:58:39.538Z,99742.00
2019-01-16T06:01:41.614Z,99749.00
2019-01-16T06:04:31.749Z,99746.00
2019-01-16T06:07:24.995Z,99741.00
2019-01-16T06:10:29.973Z,99746.00
2019-01-16T06:13:28.302Z,99742.00
2019-01-16T06:16:11.195Z,99769.00
2019-01-16T06:18:52.514Z,99742.00
2019-01-16T06:21:36.162Z,99744.00
2019-01-16T06:24:38.331Z,99734.00
2019-01-16T06:27:27.386Z,99729.00
2019-01-16T06:30:16.451Z,99735.00
2019-01-16T06:33:04.899Z,99736.00
2019-01-16T06:35:54.989Z,99729.00
2019-01-16T06:38:57.588Z,99723.00
2019-01-16T06:42:13.192Z,99726.00
2019-01-16T06:44:54.845Z,99732.00
2019-01-16T06:47:45.028Z,99732.00
2019-01-16T06:50:37.899Z,99728.00
2019-01-16T06:53:24.610Z,99728.00
2019-01-16T06:56:23.802Z,99717.00
2019-01-16T06:59:32.098Z,99734.00
2019-01-16T07:02:20.732Z,99727.00
2019-01-16T07:05:28.997Z,99725.00
2019-01-16T07:08:26.508Z,99738.00
2019-01-16T07:11:07.689Z,99737.00
2019-01-16T07:14:03.136Z,99730.00
2019-01-16T07:17:11.462Z,99727.00
2019-01-16T07:19:55.294Z,99725.00
2019-01-16T07:22:44.400Z,99732.00
2019-01-16T07:25:37.146Z,99723.00
2019-01-16T07:28:39.528Z,99724.00
2019-01-16T07:31:30.283Z,99728.00
2019-01-16T07:34:23.512Z,99725.00
2019-01-16T07:37:12.288Z,99724.00
2019-01-16T07:39:55.475Z,99734.00
2019-01-16T07:42:38.021Z,99730.00
2019-01-16T07:45:35.965Z,99727.00
2019-01-16T07:48:24.933Z,99727.00
2019-01-16T07:51:16.857Z,99717.00
2019-01-16T07:54:18.930Z,99725.00
2019-01-16T07:57:01.717Z,99724.00
2019-01-16T07:59:50.986Z,99716.00
2019-01-16T08:02:48.173Z,99708.00
2019-01-16T08:05:37.011Z,99719.00
2019-01-16T08:08:16.449Z,99719.00
2019-01-16T08:11:05.164Z,99707.00
2019-01-16T08:14:10.273Z,99716.00
2019-01-16T08:17:04.490Z,99716.00
2019-01-16T08:19:49.488Z,99709.00
2019-01-16T08:22:33.500Z,99702.00
2019-01-16T08:25:30.132Z,99701.00
2019-01-16T08:28:22.903Z,99694.00
2019-01-16T08:31:15.863Z,99692.00
2019-01-16T08:34:10.543Z,99703.00
2019-01-16T08:36:56.057Z,99694.00
2019-01-16T08:39:46.019Z,99691.00
2019-01-16T08:42:34.980Z,99681.00
2019-01-16T08:45:27.473Z,99696.00
2019-01-16T08:48:17.483Z,99684.00
2019-01-16T08:51:16.891Z,99701.00
2019-01-16T08:54:02.618Z,99688.00
2019-01-16T08:56:51.526Z,99685.00
2019-01-16T08:59:44.797Z,99684.00
2019-01-16T09:02:44.073Z,99687.00
2019-01-16T09:05:37.802Z,99689.00
2019-01-16T09:08:37.165Z,99675.00
2019-01-16T09:11:30.453Z,99668.00
2019-01-16T09:14:35.749Z,99682.00
2019-01-16T09:17:24.761Z,99668.00
2019-01-16T09:20:20.923Z,99669.00
2019-01-16T09:23:19.795Z,99660.00
2019-01-16T09:26:18.517Z,99663.00
2019-01-16T09:29:13.444Z,99657.00
2019-01-16T09:32:23.609Z,99658.00
2019-01-16T09:35:23.484Z,99651.00
2019-01-16T09:38:12.110Z,99652.00
2019-01-16T09:41:03.045Z,99651.00
2019-01-16T09:43:45.139Z,99647.00
2019-01-16T09:46:41.134Z,99642.00
2019-01-16T09:49:30.126Z,99647.00
2019-01-16T09:52:39.264Z,99644.00
2019-01-16T09:55:28.501Z,99645.00
2019-01-16T09:58:13.495Z,99641.00
2019-01-16T10:01:02.462Z,99642.00
2019-01-16T10:04:05.835Z,99641.00
2019-01-16T10:07:01.117Z,99636.00
2019-01-16T10:09:50.064Z,99636.00
2019-01-16T10:12:41.309Z,99631.00
2019-01-16T10:15:31.143Z,99632.00
2019-01-16T10:18:26.907Z,99624.00
2019-01-16T10:21:17.049Z,99632.00
2019-01-16T10:23:58.526Z,99629.00
2019-01-16T10:27:00.729Z,99633.00
2019-01-16T10:29:53.187Z,99621.00
2019-01-16T10:32:45.535Z,99619.00
2019-01-16T10:35:38.883Z,99615.00
2019-01-16T10:38:22.887Z,99604.00
2019-01-16T10:41:25.306Z,99605.00
2019-01-16T10:44:13.385Z,99607.00
2019-01-16T10:47:15.382Z,99603.00
2019-01-16T10:50:04.087Z,99598.00
2019-01-16T10:52:53.201Z,99592.00
2019-01-16T10:55:46.941Z,99590.00
2019-01-16T10:58:35.785Z,99588.00
2019-01-16T11:01:41.288Z,99584.00
2019-01-16T11:04:31.292Z,99584.00
2019-01-16T11:07:23.027Z,99582.00
2019-01-16T11:10:12.749Z,99576.00
2019-01-16T11:13:04.011Z,99575.00
2019-01-16T11:15:48.433Z,99569.00
2019-01-16T11:18:31.299Z,99574.00
2019-01-16T11:21:33.874Z,99569.00
2019-01-16T11:24:36.675Z,99557.00
2019-01-16T11:27:44.823Z,99566.00
2019-01-16T11:30:34.335Z,99556.00
2019-01-16T11:33:27.222Z,99552.00
2019-01-16T11:36:14.755Z,99554.00
2019-01-16T11:39:04.828Z,99550.00
2019-01-16T11:41:58.391Z,99541.00
2019-01-16T11:44:51.212Z,99545.00
2019-01-16T11:47:44.481Z,99540.00
2019-01-16T11:50:37.375Z,99536.00
2019-01-16T11:53:20.664Z,99522.00
2019-01-16T11:56:16.432Z,99519.00
2019-01-16T11:59:10.266Z,99519.00
2019-01-16T12:02:04.593Z,99510.00
2019-01-16T12:05:05.713Z,99505.00
2019-01-16T12:07:48.478Z,99501.00
2019-01-16T12:10:51.819Z,99504.00
2019-01-16T12:13:40.648Z,99506.00
2019-01-16T12:16:37.264Z,99488.00
2019-01-16T12:19:27.332Z,99480.00
2019-01-16T12:22:19.277Z,99475.00
2019-01-16T12:25:14.357Z,99473.00
2019-01-16T12:28:07.860Z,99467.00
2019-01-16T12:30:56.600Z,99472.00
2019-01-16T12:33:41.734Z,99462.00
2019-01-16T12:36:31.778Z,99458.00
2019-01-16T12:39:43.084Z,99451.00
2019-01-16T12:42:23.457Z,99442.00
2019-01-16T12:45:12.398Z,99452.00
2019-01-16T12:48:02.872Z,99441.00
2019-01-16T12:51:08.038Z,99449.00
2019-01-16T12:53:56.597Z,99436.00
2019-01-16T12:57:01.643Z,99438.00
2019-01-16T12:59:41.307Z,99442.00
2019-01-16T13:02:46.450Z,99437.00
2019-01-16T13:05:35.133Z,99432.00
2019-01-16T13:08:29.025Z,99438.00
2019-01-16T13:11:21.229Z,99432.00
2019-01-16T13:14:01.539Z,99433.00
2019-01-16T13:16:52.790Z,99439.00
2019-01-16T13:19:37.916Z,99422.00
2019-01-16T13:22:23.338Z,99432.00
2019-01-16T13:25:28.148Z,99434.00
2019-01-16T13:28:27.509Z,99427.00
2019-01-16T13:31:16.066Z,99423.00
2019-01-16T13:34:04.760Z,99415.00
2019-01-16T13:37:01.916Z,99413.00
2019-01-16T13:39:56.482Z,99424.00
2019-01-16T13:42:46.590Z,99416.00
2019-01-16T13:45:39.665Z,99405.00
2019-01-16T13:48:32.992Z,99407.00
2019-01-16T13:51:25.391Z,99412.00
2019-01-16T13:54:19.967Z,99411.00
2019-01-16T13:57:06.716Z,99403.00
2019-01-16T13:59:56.753Z,99396.00
2019-01-16T14:02:46.998Z,99406.00
2019-01-16T14:05:33.384Z,99408.00
2019-01-16T14:08:13.389Z,99408.00
2019-01-16T14:11:09.327Z,99406.00
2019-01-16T14:14:17.685Z,99400.00
2019-01-16T14:17:22.880Z,99403.00
2019-01-16T14:20:11.609Z,99392.00
2019-01-16T14:23:03.337Z,99383.00
2019-01-16T14:25:53.151Z,99385.00
2019-01-16T14:28:41.755Z,99375.00
2019-01-16T14:31:30.811Z,99365.00
2019-01-16T14:34:20.938Z,99376.00
2019-01-16T14:37:11.023Z,99373.00
2019-01-16T14:40:16.307Z,99372.00
2019-01-16T14:43:08.021Z,99379.00
2019-01-16T14:45:57.423Z,99365.00
2019-01-16T14:48:44.629Z,99370.00
2019-01-16T14:51:30.228Z,99368.00
2019-01-16T14:54:29.786Z,99365.00
2019-01-16T14:57:26.059Z,99358.00
2019-01-16T15:00:14.720Z,99368.00
2019-01-16T15:03:04.827Z,99360.00
2019-01-16T15:05:55.634Z,99368.00
2019-01-16T15:08:54.888Z,99349.00
2019-01-16T15:11:54.021Z,99344.00
2019-01-16T15:14:42.811Z,99351.00
2019-01-16T15:17:34.794Z,99345.00
2019-01-16T15:20:27.332Z,99348.00
2019-01-16T15:23:32.415Z,99332.00
2019-01-16T15:26:34.011Z,99346.00
2019-01-16T15:29:22.801Z,99343.00
2019-01-16T15:32:11.507Z,99335.00
2019-01-16T15:35:03.920Z,99332.00
2019-01-16T15:37:52.833Z,99336.00
2019-01-16T15:40:34.647Z,99334.00
2019-01-16T15:43:25.195Z,99337.00
2019-01-16T15:46:10.622Z,99327.00
2019-01-16T15:49:00.695Z,99323.00
2019-01-16T15:51:51.235Z,99325.00
2019-01-16T15:54:36.828Z,99324.00
2019-01-16T15:57:42.701Z,99322.00
2019-01-16T16:00:36.603Z,99312.00
2019-01-16T16:03:28.555Z,99320.00
2019-01-16T16:06:24.578Z,99317.00
2019-01-16T16:09:14.077Z,99309.00
2019-01-16T16:12:03.043Z,99309.00
2019-01-16T16:14:59.012Z,99307.00
2019-01-16T16:17:43.597Z,99290.00
2019-01-16T16:20:28.544Z,99317.00
2019-01-16T16:23:18.438Z,99292.00
2019-01-16T16:26:17.651Z,99291.00
2019-01-16T16:29:23.010Z,99300.00
2019-01-16T16:32:18.335Z,99289.00
2019-01-16T16:35:07.066Z,99278.00
2019-01-16T16:38:02.075Z,99269.00
2019-01-16T16:41:01.975Z,99258.00
2019-01-16T16:44:01.837Z,99261.00
2019-01-16T16:46:55.300Z,99261.00
2019-01-16T16:49:44.440Z,99264.00
2019-01-16T16:52:36.428Z,99256.00
2019-01-16T16:55:45.060Z,99265.00
2019-01-16T16:58:33.931Z,99262.00
2019-01-16T17:01:42.081Z,99262.00
2019-01-16T17:04:23.086Z,99246.00
2019-01-16T17:07:07.596Z,99251.00
2019-01-16T17:10:05.441Z,99237.00
2019-01-16T17:12:50.494Z,99240.00
2019-01-16T17:15:37.142Z,99231.00
2019-01-16T17:18:39.247Z,99227.00
2019-01-16T17:21:24.523Z,99219.00
2019-01-16T17:24:20.550Z,99216.00
2019-01-16T17:27:09.964Z,99227.00
2019-01-16T17:30:10.222Z,99227.00
2019-01-16T17:32:59.086Z,99223.00
2019-01-16T17:35:45.505Z,99210.00
2019-01-16T17:38:41.690Z,99201.00
2019-01-16T17:41:33.440Z,99200.00
2019-01-16T17:44:22.779Z,99195.00
2019-01-16T17:47:08.424Z,99197.00
2019-01-16T17:50:09.696Z,99197.00
2019-01-16T17:53:09.002Z,99185.00
2019-01-16T17:55:55.227Z,99163.00
2019-01-16T17:58:46.140Z,99160.00
2019-01-16T18:01:45.581Z,99174.00
2019-01-16T18:04:31.467Z,99174.00
2019-01-16T18:07:30.378Z,99159.00
2019-01-16T18:10:19.436Z,99169.00
2019-01-16T18:13:09.418Z,99162.00
2019-01-16T18:15:51.061Z,99163.00
2019-01-16T18:18:40.230Z,99157.00
2019-01-16T18:21:18.894Z,99166.00
2019-01-16T18:24:21.319Z,99145.00
2019-01-16T18:27:30.622Z,99145.00
2019-01-16T18:30:12.238Z,99153.00
2019-01-16T18:32:54.178Z,99145.00
2019-01-16T18:35:43.252Z,99147.00
2019-01-16T18:38:34.357Z,99139.00
2019-01-16T18:41:23.068Z,99131.00
2019-01-16T18:44:15.973Z,99133.00
2019-01-16T18:47:05.323Z,99114.00
2019-01-16T18:49:44.282Z,99126.00
2019-01-16T18:52:34.442Z,99119.00
2019-01-16T18:55:24.385Z,99123.00
2019-01-16T18:58:18.111Z,99111.00
2019-01-16T19:01:08.720Z,99110.00
2019-01-16T19:03:54.455Z,99115.00
2019-01-16T19:06:44.134Z,99101.00
2019-01-16T19:09:47.519Z,99111.00
2019-01-16T19:12:29.393Z,99102.00
2019-01-16T19:15:19.555Z,99087.00
2019-01-16T19:18:21.456Z,99099.00
2019-01-16T19:21:10.181Z,99088.00
2019-01-16T19:23:59.080Z,99097.00
2019-01-16T19:26:47.956Z,99083.00
2019-01-16T19:29:45.247Z,99075.00
2019-01-16T19:32:53.972Z,99084.00
2019-01-16T19:35:37.515Z,99092.00
2019-01-16T19:38:25.329Z,99084.00
2019-01-16T19:41:21.945Z,99085.00
2019-01-16T19:44:02.278Z,99069.00
2019-01-16T19:46:45.127Z,99072.00
2019-01-16T19:49:50.140Z,99076.00
2019-01-16T19:52:34.897Z,99065.00
2019-01-16T19:55:23.470Z,99069.00
2019-01-16T19:58:13.533Z,99066.00
2019-01-16T20:00:55.625Z,99058.00
2019-01-16T20:03:41.505Z,99050.00
2019-01-16T20:06:30.193Z,99041.00
2019-01-16T20:09:26.678Z,99039.00
2019-01-16T20:12:15.820Z,99035.00
2019-01-16T20:15:01.872Z,99032.00
2019-01-16T20:17:44.796Z,99028.00
2019-01-16T20:20:33.570Z,99014.00
2019-01-16T20:23:34.624Z,99035.00
2019-01-16T20:26:24.275Z,99011.00
2019-01-16T20:29:17.476Z,99000.00
2019-01-16T20:31:57.543Z,99014.00
2019-01-16T20:34:46.681Z,99012.00
2019-01-16T20:37:51.989Z,98994.00
2019-01-16T20:40:54.530Z,99003.00
2019-01-16T20:43:44.620Z,98999.00
2019-01-16T20:46:37.635Z,98991.00
2019-01-16T20:49:26.748Z,98991.00
2019-01-16T20:52:15.807Z,98974.00
2019-01-16T20:55:04.629Z,98985.00
2019-01-16T20:57:54.155Z,98975.00
2019-01-16T21:00:53.651Z,98971.00
2019-01-16T21:03:54.356Z,98968.00
2019-01-16T21:07:02.640Z,98968.00
2019-01-16T21:10:04.865Z,98965.00
2019-01-16T21:12:57.005Z,98952.00
2019-01-16T21:15:52.997Z,98958.00
2019-01-16T21:18:35.692Z,98953.00
2019-01-16T21:21:34.865Z,98940.00
2019-01-16T21:24:28.465Z,98934.00
2019-01-16T21:27:27.667Z,98927.00
2019-01-16T21:30:32.938Z,98918.00
2019-01-16T21:33:22.026Z,98917.00
2019-01-16T21:36:06.903Z,98915.00
2019-01-16T21:38:56.510Z,98913.00
2019-01-16T21:41:36.798Z,98910.00
2019-01-16T21:44:25.673Z,98899.00
2019-01-16T21:47:14.447Z,98891.00
2019-01-16T21:50:10.861Z,98913.00
2019-01-16T21:52:53.967Z,98889.00
2019-01-16T21:55:45.827Z,98890.00
2019-01-16T21:58:44.918Z,98880.00
2019-01-16T22:01:36.973Z,98879.00
2019-01-16T22:04:26.091Z,98876.00
2019-01-16T22:10:28.701Z,98858.00
2019-01-16T22:13:14.509Z,98865.00
2019-01-16T22:16:13.495Z,98861.00
2019-01-16T22:18:59.723Z,98853.00
2019-01-16T22:21:41.248Z,98845.00
2019-01-16T22:24:24.183Z,98855.00
2019-01-16T22:27:21.842Z,98834.00
2019-01-16T22:30:30.406Z,98842.00
2019-01-16T22:33:11.222Z,98840.00
2019-01-16T22:36:10.363Z,98833.00
2019-01-16T22:38:52.412Z,98822.00
2019-01-16T22:41:35.965Z,98826.00
2019-01-16T22:44:25.610Z,98820.00
2019-01-16T22:47:16.547Z,98826.00
2019-01-16T22:50:04.800Z,98824.00
2019-01-16T22:52:56.717Z,98810.00
2019-01-16T22:55:43.621Z,98822.00
2019-01-16T22:58:30.529Z,98806.00
2019-01-16T23:01:16.826Z,98814.00
2019-01-16T23:04:05.886Z,98804.00
2019-01-16T23:06:44.623Z,98805.00
2019-01-16T23:09:27.433Z,98805.00
2019-01-16T23:12:29.762Z,98800.00
2019-01-16T23:15:38.339Z,98812.00
2019-01-16T23:18:27.025Z,98803.00
2019-01-16T23:21:15.998Z,98807.00
2019-01-16T23:23:53.150Z,98807.00
2019-01-16T23:26:39.958Z,98798.00
2019-01-16T23:29:29.926Z,98788.00
2019-01-16T23:32:11.004Z,98792.00
2019-01-16T23:34:54.715Z,98784.00
2019-01-16T23:37:43.700Z,98798.00
2019-01-16T23:40:36.822Z,98787.00
2019-01-16T23:43:36.146Z,98772.00
2019-01-16T23:46:25.028Z,98773.00
2019-01-16T23:49:14.212Z,98764.00
2019-01-16T23:52:12.545Z,98761.00
2019-01-16T23:55:05.705Z,98765.00
2019-01-16T23:58:04.632Z,98766.00
